createdAt,value
2018-09-11T00:06:52.737Z,1009.2
2018-09-11T00:16:54.868Z,1009.3
2018-09-11T00:26:56.533Z,1009.4
2018-09-11T00:36:58.026Z,1009.4
2018-09-11T00:47:00.176Z,1009.3
2018-09-11T00:57:01.842Z,1009.3
2018-09-11T01:07:04.074Z,1009.2
2018-09-11T01:17:05.705Z,1009.1
2018-09-11T01:27:07.951Z,1009
2018-09-11T01:37:09.899Z,1009.1
2018-09-11T01:47:12.167Z,1009.1
2018-09-11T01:57:13.924Z,1008.8
2018-09-11T02:07:16.220Z,1008.9
2018-09-11T02:17:17.853Z,1008.9
2018-09-11T02:27:19.393Z,1008.9
2018-09-11T02:37:20.991Z,1008.8
2018-09-11T02:47:22.551Z,1009
2018-09-11T02:57:24.420Z,1009.1
2018-09-11T03:07:26.758Z,1009
2018-09-11T03:17:28.246Z,1008.9
2018-09-11T03:27:30.033Z,1008.9
2018-09-11T03:37:31.654Z,1009
2018-09-11T03:47:33.532Z,1008.9
2018-09-11T03:57:35.518Z,1008.9
2018-09-11T04:07:37.718Z,1008.8
2018-09-11T04:17:39.342Z,1008.8
2018-09-11T04:27:41.162Z,1008.8
2018-09-11T04:37:42.824Z,1008.6
2018-09-11T04:47:44.999Z,1008.6
2018-09-11T04:57:47.252Z,1008.5
2018-09-11T05:07:50.741Z,1008.4
2018-09-11T05:17:52.926Z,1008.3
2018-09-11T05:27:54.861Z,1008.2
2018-09-11T05:37:56.591Z,1008.3
2018-09-11T05:47:58.203Z,1008.3
2018-09-11T05:58:00.833Z,1008.4
2018-09-11T06:08:02.608Z,1008.3
2018-09-11T06:18:05.046Z,1008.3
2018-09-11T06:28:07.021Z,1008.3
2018-09-11T06:38:08.643Z,1008.5
2018-09-11T06:48:10.796Z,1008.6
2018-09-11T06:58:12.952Z,1008.7
2018-09-11T07:08:14.630Z,1008.6
2018-09-11T07:18:16.592Z,1008.6
2018-09-11T07:28:18.433Z,1008.7
2018-09-11T07:38:20.273Z,1008.7
2018-09-11T07:48:22.528Z,1008.7
2018-09-11T07:58:24.576Z,1008.9
2018-09-11T08:08:27.175Z,1008.9
2018-09-11T08:18:29.374Z,1009
2018-09-11T08:28:31.247Z,1008.8
2018-09-11T08:38:32.845Z,1008.6
2018-09-11T08:48:34.954Z,1008.5
2018-09-11T08:58:37.028Z,1008.6
2018-09-11T09:08:39.013Z,1008.5
2018-09-11T09:18:41.022Z,1008.5
2018-09-11T09:28:42.745Z,1008.6
2018-09-11T09:38:44.385Z,1008.5
2018-09-11T09:48:46.534Z,1008.6
2018-09-11T09:58:48.269Z,1008.6
2018-09-11T10:08:50.257Z,1008.5
2018-09-11T10:18:52.179Z,1008.5
2018-09-11T10:28:53.810Z,1008.5
2018-09-11T10:38:55.262Z,1008.4
2018-09-11T10:48:56.865Z,1008.3
2018-09-11T10:58:58.354Z,1008.2
2018-09-11T11:09:00.510Z,1008.4
2018-09-11T11:19:02.269Z,1008.2
2018-09-11T11:29:04.598Z,1008.1
2018-09-11T11:39:07.126Z,1008.3
2018-09-11T11:49:08.752Z,1008.2
2018-09-11T11:59:10.538Z,1008.1
2018-09-11T12:09:12.240Z,1008.2
2018-09-11T12:19:13.852Z,1008.1
2018-09-11T12:29:15.504Z,1008
2018-09-11T12:39:17.398Z,1008
2018-09-11T12:49:18.739Z,1007.9
2018-09-11T12:59:20.871Z,1007.9
2018-09-11T13:09:23.040Z,1007.9
2018-09-11T13:19:27.026Z,1008.1
2018-09-11T13:29:28.994Z,1007.9
2018-09-11T13:39:30.792Z,1007.7
2018-09-11T13:49:32.942Z,1007.7
2018-09-11T13:59:34.910Z,1007.7
2018-09-11T14:09:36.374Z,1007.6
2018-09-11T14:19:38.599Z,1007.6
2018-09-11T14:29:40.712Z,1007.6
2018-09-11T14:39:42.792Z,1007.4
2018-09-11T14:49:44.442Z,1007.4
2018-09-11T14:59:46.401Z,1007.5
2018-09-11T15:09:48.399Z,1007.7
2018-09-11T15:19:50.581Z,1007.6
2018-09-11T15:29:52.428Z,1007.5
2018-09-11T15:39:54.725Z,1007.5
2018-09-11T15:49:57.054Z,1007.5
2018-09-11T15:59:58.857Z,1007.3
2018-09-11T16:10:01.038Z,1007.3
2018-09-11T16:20:02.861Z,1007.3
2018-09-11T16:30:05.273Z,1007.1
2018-09-11T16:40:07.167Z,1007.1
2018-09-11T16:50:08.740Z,1007.1
2018-09-11T17:00:10.758Z,1007.1
2018-09-11T17:10:12.464Z,1007.1
2018-09-11T17:20:14.579Z,1007
2018-09-11T17:30:16.685Z,1007
2018-09-11T17:40:18.615Z,1007.1
2018-09-11T17:50:20.609Z,1007.1
2018-09-11T18:00:22.583Z,1007.2
2018-09-11T18:10:24.122Z,1007.3
2018-09-11T18:20:26.407Z,1007.4
2018-09-11T18:30:28.851Z,1007.5
2018-09-11T18:40:30.366Z,1007.5
2018-09-11T18:50:31.864Z,1007.7
2018-09-11T19:00:33.816Z,1007.8
2018-09-11T19:10:35.866Z,1007.8
2018-09-11T19:20:37.781Z,1007.8
2018-09-11T19:30:39.405Z,1007.8
2018-09-11T19:40:41.299Z,1007.8
2018-09-11T19:50:42.995Z,1007.8
2018-09-11T20:00:45.418Z,1007.8
2018-09-11T20:10:47.438Z,1007.8
2018-09-11T20:20:49.083Z,1007.6
2018-09-11T20:30:50.918Z,1007.5
2018-09-11T20:40:52.729Z,1007.6
2018-09-11T20:50:54.534Z,1007.6
2018-09-11T21:00:56.284Z,1007.6
2018-09-11T21:10:57.568Z,1007.6
2018-09-11T21:20:59.282Z,1007.6
2018-09-11T21:31:00.819Z,1007.5
2018-09-11T21:41:02.896Z,1007.5
2018-09-11T21:51:04.930Z,1007.6
2018-09-11T22:01:07.033Z,1007.5
2018-09-11T22:11:08.831Z,1007.5
2018-09-11T22:21:10.606Z,1007.6
2018-09-11T22:31:12.701Z,1007.5
2018-09-11T22:41:14.489Z,1007.6
2018-09-11T22:51:16.301Z,1007.6
2018-09-11T23:01:18.590Z,1007.6
2018-09-11T23:11:20.315Z,1007.5
2018-09-11T23:21:22.149Z,1007.5
2018-09-11T23:31:24.449Z,1007.5
2018-09-11T23:41:26.312Z,1007.4
2018-09-11T23:51:28.018Z,1007.4
